Time;durP1;ratioP1;P1;durP2;ratioP2;P2;SDS_P1;SDS_P2;PMS_P1;PMS_P2;Temp;Humidity;BMP_temperature;BMP_pressure;BME280_temperature;BME280_humidity;BME280_pressure;Samples;Min_cycle;Max_cycle;Signal;HPM_P1;HPM_P2
2021/11/30 00:01:29;;;;;;;4.40;1.83;;;6.00;99.90;;;;;;5013987;28;20025;-78
2021/11/30 00:10:46;;;;;;;5.10;2.13;;;6.00;99.90;;;;;;5060128;23;20657;-77
2021/11/30 00:13:18;;;;;;;5.45;1.58;;;6.00;99.90;;;;;;4974361;28;20383;-77
2021/11/30 00:15:45;;;;;;;4.07;2.20;;;6.00;99.90;;;;;;4986260;28;20036;-78
2021/11/30 00:18:11;;;;;;;5.88;2.50;;;6.00;99.90;;;;;;4976182;28;20097;-78
2021/11/30 00:20:39;;;;;;;7.35;2.38;;;5.90;99.60;;;;;;4993249;28;20430;-78
2021/11/30 00:23:06;;;;;;;5.30;2.58;;;5.90;99.70;;;;;;4992241;28;20026;-78
2021/11/30 00:25:32;;;;;;;4.90;2.20;;;5.90;99.70;;;;;;4993056;28;20033;-77
2021/11/30 00:27:57;;;;;;;7.30;2.95;;;5.90;99.60;;;;;;4994370;28;20421;-78
2021/11/30 00:30:23;;;;;;;4.78;2.72;;;5.90;99.50;;;;;;4992547;28;20041;-77
2021/11/30 00:32:50;;;;;;;6.47;3.22;;;5.90;99.40;;;;;;4994179;28;20023;-77
2021/11/30 00:35:16;;;;;;;7.75;3.20;;;5.80;99.30;;;;;;4993058;28;20035;-77
2021/11/30 00:37:45;;;;;;;7.53;3.55;;;5.90;99.20;;;;;;4992611;28;20068;-77
2021/11/30 00:40:11;;;;;;;8.68;3.67;;;5.80;99.20;;;;;;4992244;28;20030;-77
2021/11/30 00:42:40;;;;;;;8.48;3.70;;;5.90;99.20;;;;;;4993979;28;20019;-77
2021/11/30 00:45:08;;;;;;;15.63;5.20;;;5.90;99.10;;;;;;4992221;28;20031;-78
2021/11/30 00:47:35;;;;;;;7.28;3.58;;;5.90;99.10;;;;;;4992422;28;20033;-77
2021/11/30 00:50:04;;;;;;;10.25;4.40;;;5.80;99.00;;;;;;4993880;28;20030;-77
2021/11/30 00:52:30;;;;;;;11.05;3.88;;;5.80;98.80;;;;;;4992576;28;20022;-78
2021/11/30 00:54:57;;;;;;;9.10;3.80;;;5.80;98.70;;;;;;4992484;28;20030;-77
2021/11/30 00:57:23;;;;;;;10.43;4.40;;;5.80;98.80;;;;;;4992856;28;20493;-78
2021/11/30 00:59:52;;;;;;;6.78;3.42;;;5.80;98.80;;;;;;4993661;28;20030;-78
2021/11/30 01:02:18;;;;;;;9.18;4.00;;;5.80;98.70;;;;;;4991822;28;20463;-78
2021/11/30 01:04:45;;;;;;;7.68;3.90;;;5.80;99.00;;;;;;4992472;28;20037;-78
2021/11/30 01:07:11;;;;;;;9.00;3.65;;;5.90;98.70;;;;;;4991850;28;20041;-78
2021/11/30 01:09:40;;;;;;;8.73;3.60;;;5.90;98.40;;;;;;4992170;28;20463;-78
2021/11/30 01:12:06;;;;;;;5.65;3.53;;;5.80;98.20;;;;;;4990646;28;20510;-77
2021/11/30 01:14:32;;;;;;;5.60;2.80;;;5.80;98.10;;;;;;4992319;28;20019;-77
2021/11/30 01:16:59;;;;;;;7.15;2.88;;;5.90;97.90;;;;;;4992946;28;20475;-78
2021/11/30 01:19:24;;;;;;;8.48;3.50;;;5.80;97.80;;;;;;4993803;28;20026;-79
2021/11/30 01:21:54;;;;;;;10.27;3.90;;;5.80;97.80;;;;;;4993412;28;20474;-78
2021/11/30 01:24:20;;;;;;;8.63;2.53;;;5.80;97.80;;;;;;4992116;28;20023;-78
2021/11/30 01:26:49;;;;;;;7.85;3.70;;;5.80;97.60;;;;;;4992554;28;20423;-78
2021/11/30 01:29:15;;;;;;;6.20;2.70;;;5.80;97.40;;;;;;4990834;28;20018;-79
2021/11/30 01:38:03;;;;;;;6.38;3.10;;;5.80;97.00;;;;;;5092944;23;1171002;-79
2021/11/30 01:40:32;;;;;;;6.20;3.28;;;5.60;97.00;;;;;;5016347;28;20049;-79
2021/11/30 01:43:00;;;;;;;7.47;3.55;;;5.50;97.10;;;;;;4998800;28;20038;-79
2021/11/30 01:50:56;;;;;;;6.70;3.50;;;5.10;97.70;;;;;;4993115;28;20038;-79
2021/11/30 01:53:22;;;;;;;11.95;3.53;;;5.10;97.80;;;;;;5007653;28;20125;-79
2021/11/30 01:55:49;;;;;;;7.25;3.75;;;5.00;98.00;;;;;;4992821;28;20069;-79
2021/11/30 01:58:15;;;;;;;11.15;3.40;;;5.00;98.20;;;;;;5007562;28;20023;-79
2021/11/30 02:00:43;;;;;;;8.68;3.95;;;4.90;98.20;;;;;;4992860;28;20027;-79
2021/11/30 02:03:09;;;;;;;8.45;4.40;;;4.80;98.50;;;;;;4992324;28;20037;-79
2021/11/30 02:05:37;;;;;;;13.02;4.32;;;4.70;98.70;;;;;;4992668;28;20023;-79
2021/11/30 02:08:07;;;;;;;13.70;4.13;;;4.70;98.80;;;;;;4992954;28;20053;-80
2021/11/30 02:10:35;;;;;;;13.65;4.82;;;4.60;99.00;;;;;;4992984;28;20018;-80
2021/11/30 02:13:01;;;;;;;16.33;5.50;;;4.60;99.10;;;;;;5007724;28;20023;-80
2021/11/30 02:15:27;;;;;;;18.77;6.82;;;4.60;99.20;;;;;;4992486;28;20022;-80
2021/11/30 02:17:59;;;;;;;15.65;5.75;;;4.60;99.40;;;;;;4992853;28;20038;-79
2021/11/30 02:20:25;;;;;;;13.55;6.15;;;4.60;99.50;;;;;;4992398;28;20019;-80
2021/11/30 02:22:54;;;;;;;20.77;7.35;;;4.60;99.50;;;;;;4992805;28;20026;-80
2021/11/30 02:25:22;;;;;;;13.00;6.45;;;4.50;99.60;;;;;;5007437;28;20034;-79
2021/11/30 02:27:50;;;;;;;13.57;6.28;;;4.50;99.70;;;;;;4992381;28;20042;-80
2021/11/30 02:30:16;;;;;;;13.80;5.85;;;4.50;99.80;;;;;;5007040;28;20033;-80
2021/11/30 02:32:42;;;;;;;14.57;5.78;;;4.50;99.90;;;;;;4992650;28;20033;-80
2021/11/30 02:35:08;;;;;;;13.38;6.07;;;4.50;99.90;;;;;;5007210;28;20031;-80
2021/11/30 02:37:45;;;;;;;10.70;5.53;;;4.60;99.90;;;;;;4992205;28;20050;-80
2021/11/30 02:40:12;;;;;;;11.38;5.40;;;4.60;99.90;;;;;;4991001;28;20030;-80
2021/11/30 02:42:37;;;;;;;11.50;5.45;;;4.60;99.90;;;;;;4992686;28;20018;-79
2021/11/30 02:45:04;;;;;;;12.88;5.72;;;4.60;99.90;;;;;;5007773;28;20084;-80
2021/11/30 02:47:29;;;;;;;16.80;6.20;;;4.60;99.90;;;;;;4992369;28;20030;-80
2021/11/30 02:49:57;;;;;;;10.43;5.85;;;4.60;99.90;;;;;;5007695;28;20033;-80
2021/11/30 02:52:23;;;;;;;12.93;5.55;;;4.60;99.90;;;;;;4992399;28;20030;-79
2021/11/30 02:54:53;;;;;;;13.55;5.85;;;4.60;99.90;;;;;;4992778;28;20098;-79
2021/11/30 02:57:20;;;;;;;13.93;5.95;;;4.60;99.90;;;;;;5007250;28;20023;-80
2021/11/30 02:59:51;;;;;;;11.23;5.38;;;4.60;99.90;;;;;;4995982;28;20038;-80
2021/11/30 03:02:18;;;;;;;12.00;6.80;;;4.60;99.90;;;;;;4995839;28;20034;-80
2021/11/30 03:04:46;;;;;;;12.52;6.88;;;4.60;99.90;;;;;;4995563;28;20401;-79
2021/11/30 03:07:18;;;;;;;15.18;8.02;;;4.60;99.90;;;;;;4995429;28;20031;-80
2021/11/30 03:09:44;;;;;;;11.70;6.10;;;4.60;99.90;;;;;;5011072;28;20077;-80
2021/11/30 03:12:11;;;;;;;12.93;6.70;;;4.60;99.90;;;;;;5010370;28;20022;-79
2021/11/30 03:14:37;;;;;;;15.55;7.88;;;4.60;99.90;;;;;;5010924;28;20537;-79
2021/11/30 03:17:04;;;;;;;15.90;7.78;;;4.60;99.90;;;;;;5010822;28;20367;-79
2021/11/30 03:19:30;;;;;;;10.98;6.93;;;4.60;99.90;;;;;;5010085;28;20030;-79
2021/11/30 03:21:57;;;;;;;13.98;7.32;;;4.70;99.90;;;;;;5010634;28;20022;-79
2021/11/30 03:24:23;;;;;;;16.30;8.48;;;4.70;99.90;;;;;;4995096;28;20034;-78
2021/11/30 03:26:49;;;;;;;16.77;7.80;;;4.80;99.90;;;;;;4995683;28;20022;-79
2021/11/30 03:29:15;;;;;;;12.80;8.07;;;4.80;99.90;;;;;;4995305;28;20033;-79
2021/11/30 03:34:10;;;;;;;12.77;8.40;;;4.80;99.90;;;;;;4996184;28;20385;-79
2021/11/30 03:36:38;;;;;;;14.18;8.48;;;4.90;99.90;;;;;;5011222;28;20022;-78
2021/11/30 03:39:08;;;;;;;16.20;9.65;;;4.90;99.90;;;;;;4995641;28;20054;-78
2021/11/30 03:41:34;;;;;;;16.35;9.57;;;4.90;99.90;;;;;;4995054;28;20379;-78
2021/11/30 03:44:05;;;;;;;16.25;9.38;;;4.90;99.90;;;;;;5011163;28;20030;-78
2021/11/30 03:46:31;;;;;;;14.38;9.65;;;5.00;99.90;;;;;;5013477;28;20044;-78
2021/11/30 03:48:58;;;;;;;13.18;7.97;;;4.90;99.90;;;;;;5014666;28;20030;-78
2021/11/30 03:51:24;;;;;;;14.30;9.55;;;5.00;99.90;;;;;;5012861;28;20025;-79
2021/11/30 03:53:50;;;;;;;15.50;8.93;;;5.00;99.90;;;;;;5013237;28;20141;-78
2021/11/30 03:56:16;;;;;;;16.35;8.85;;;5.00;99.90;;;;;;5013673;28;20156;-78
2021/11/30 03:58:42;;;;;;;17.80;8.80;;;5.00;99.90;;;;;;5014102;28;20030;-78
2021/11/30 04:01:08;;;;;;;14.15;8.65;;;5.10;99.90;;;;;;5012975;28;20458;-78
2021/11/30 04:03:34;;;;;;;16.10;9.63;;;5.10;99.90;;;;;;5013960;28;20030;-78
2021/11/30 04:06:02;;;;;;;15.55;9.40;;;5.10;99.90;;;;;;5014318;28;20022;-78
2021/11/30 04:08:29;;;;;;;18.10;9.98;;;5.10;99.90;;;;;;5012432;28;20101;-78
2021/11/30 04:10:55;;;;;;;17.38;9.75;;;5.20;99.90;;;;;;5012014;28;20022;-78
2021/11/30 04:13:21;;;;;;;21.33;10.20;;;5.20;99.90;;;;;;5028990;28;20377;-78
2021/11/30 04:15:47;;;;;;;17.10;10.07;;;5.20;99.90;;;;;;5013824;28;20096;-78
2021/11/30 04:18:12;;;;;;;14.75;9.63;;;5.30;99.90;;;;;;5013656;28;20062;-78
2021/11/30 04:20:38;;;;;;;15.35;9.45;;;5.30;99.90;;;;;;5012800;28;20462;-77
2021/11/30 04:23:05;;;;;;;15.05;9.25;;;5.30;99.90;;;;;;5013765;28;20382;-77
2021/11/30 04:25:31;;;;;;;15.00;8.43;;;5.40;99.90;;;;;;5012170;28;20029;-76
2021/11/30 04:27:57;;;;;;;15.48;8.43;;;5.40;99.90;;;;;;5012691;28;20036;-77
2021/11/30 04:30:23;;;;;;;16.20;8.63;;;5.50;99.90;;;;;;5012057;28;20026;-77
2021/11/30 04:32:49;;;;;;;15.75;8.27;;;5.50;99.90;;;;;;5010499;28;20037;-77
2021/11/30 04:35:15;;;;;;;12.85;7.57;;;5.60;99.90;;;;;;4994789;28;20022;-76
2021/11/30 04:37:41;;;;;;;12.30;6.78;;;5.70;99.90;;;;;;4993757;28;20073;-77
2021/11/30 04:40:12;;;;;;;11.95;6.60;;;5.70;99.90;;;;;;4992677;28;20482;-77
2021/11/30 04:42:39;;;;;;;11.90;6.43;;;5.80;99.90;;;;;;4993568;28;20026;-76
2021/11/30 04:45:08;;;;;;;10.20;6.30;;;5.90;99.90;;;;;;4992571;28;20022;-77
2021/11/30 04:47:37;;;;;;;10.30;5.53;;;5.90;99.90;;;;;;4992012;28;20395;-77
2021/11/30 04:50:10;;;;;;;11.15;6.10;;;6.00;99.90;;;;;;4993429;28;20498;-78
2021/11/30 04:52:38;;;;;;;11.48;5.88;;;6.00;99.90;;;;;;4995577;28;20031;-77
2021/11/30 04:55:04;;;;;;;10.40;6.57;;;6.10;99.90;;;;;;4992428;28;20031;-77
2021/11/30 04:57:30;;;;;;;10.35;6.45;;;6.10;99.90;;;;;;4993012;28;20026;-78
2021/11/30 04:59:56;;;;;;;9.65;5.15;;;6.20;99.90;;;;;;4993107;28;20096;-77
2021/11/30 05:02:22;;;;;;;11.45;5.82;;;6.10;99.90;;;;;;4992839;28;20044;-78
2021/11/30 05:04:48;;;;;;;8.18;4.63;;;6.20;99.90;;;;;;4991991;28;20455;-77
2021/11/30 05:07:15;;;;;;;10.07;5.30;;;6.30;99.90;;;;;;4993179;28;20105;-77
2021/11/30 05:09:41;;;;;;;8.57;4.80;;;6.30;99.90;;;;;;4991618;28;20041;-77
2021/11/30 05:12:08;;;;;;;7.97;4.72;;;6.30;99.90;;;;;;4992850;28;20022;-77
2021/11/30 05:14:34;;;;;;;7.38;4.07;;;6.30;99.90;;;;;;4991255;28;20379;-77
2021/11/30 05:17:01;;;;;;;9.35;5.15;;;6.40;99.90;;;;;;4990461;28;20463;-76
2021/11/30 05:19:26;;;;;;;8.13;4.70;;;6.40;99.90;;;;;;4989421;28;20030;-76
2021/11/30 05:21:52;;;;;;;8.98;4.53;;;6.50;99.90;;;;;;4989407;28;20030;-78
2021/11/30 05:24:19;;;;;;;7.13;4.00;;;6.50;99.90;;;;;;4990653;28;20034;-79
2021/11/30 05:26:46;;;;;;;8.88;4.28;;;6.50;99.90;;;;;;4991135;28;20018;-78
2021/11/30 05:29:12;;;;;;;6.85;4.10;;;6.60;99.90;;;;;;4990782;28;20053;-78
2021/11/30 05:31:37;;;;;;;7.43;4.45;;;6.60;99.90;;;;;;4989090;28;20309;-78
2021/11/30 05:34:03;;;;;;;8.15;4.63;;;6.60;99.90;;;;;;4989679;28;20050;-78
2021/11/30 05:36:32;;;;;;;7.65;4.13;;;6.70;99.90;;;;;;4990605;28;20455;-79
2021/11/30 05:38:58;;;;;;;8.02;4.15;;;6.70;99.90;;;;;;4989202;28;20107;-78
2021/11/30 05:41:24;;;;;;;7.95;3.70;;;6.70;99.90;;;;;;4990520;28;20413;-78
2021/11/30 05:43:50;;;;;;;8.52;4.30;;;6.70;99.90;;;;;;4999182;28;20058;-78
2021/11/30 05:46:17;;;;;;;7.90;4.15;;;6.80;99.90;;;;;;4989594;28;20391;-78
2021/11/30 05:48:42;;;;;;;6.57;3.67;;;6.80;99.90;;;;;;4990561;28;20030;-76
2021/11/30 05:51:08;;;;;;;5.85;2.92;;;6.80;99.90;;;;;;4991554;28;20033;-75
2021/11/30 05:53:34;;;;;;;7.03;3.55;;;6.90;99.90;;;;;;4992400;28;20033;-76
2021/11/30 05:56:02;;;;;;;6.10;3.00;;;6.90;99.90;;;;;;5008105;28;20445;-76
2021/11/30 05:58:29;;;;;;;6.68;3.63;;;6.90;99.90;;;;;;5008131;28;20022;-74
2021/11/30 06:01:00;;;;;;;7.32;3.28;;;6.90;99.90;;;;;;5010599;28;20057;-76
2021/11/30 06:03:35;;;;;;;5.38;3.13;;;7.00;99.90;;;;;;5011944;28;20108;-76
2021/11/30 06:06:01;;;;;;;6.68;2.97;;;7.00;99.90;;;;;;5012226;28;20017;-76
2021/11/30 06:08:26;;;;;;;6.38;3.03;;;7.10;99.90;;;;;;5011894;28;20105;-76
2021/11/30 06:10:52;;;;;;;5.63;2.70;;;7.10;99.90;;;;;;5010895;28;20026;-76
2021/11/30 06:13:18;;;;;;;6.10;2.80;;;7.10;99.90;;;;;;5010807;28;20397;-77
2021/11/30 06:15:44;;;;;;;5.53;2.50;;;7.10;99.90;;;;;;5011895;28;20026;-76
2021/11/30 06:18:09;;;;;;;5.10;2.35;;;7.20;99.90;;;;;;5010885;28;20036;-76
2021/11/30 06:20:37;;;;;;;4.40;2.15;;;7.20;99.90;;;;;;5011752;28;20032;-76
2021/11/30 06:23:02;;;;;;;4.63;2.17;;;7.20;99.90;;;;;;5010899;28;20033;-76
2021/11/30 06:25:28;;;;;;;4.30;1.95;;;7.30;99.90;;;;;;5011499;28;20022;-76
2021/11/30 06:27:54;;;;;;;3.67;1.77;;;7.30;99.90;;;;;;5010633;28;20026;-76
2021/11/30 06:30:20;;;;;;;4.30;1.95;;;7.30;99.90;;;;;;5012169;28;20084;-76
2021/11/30 06:32:46;;;;;;;5.10;1.80;;;7.40;99.90;;;;;;5011211;28;20037;-76
2021/11/30 06:35:12;;;;;;;3.92;1.80;;;7.40;99.90;;;;;;5015956;28;20111;-77
2021/11/30 06:37:38;;;;;;;4.03;1.92;;;7.40;99.90;;;;;;5013768;28;20501;-76
2021/11/30 06:40:05;;;;;;;3.67;1.63;;;7.40;99.90;;;;;;5014576;28;20029;-76
2021/11/30 06:42:30;;;;;;;3.45;1.48;;;7.50;99.90;;;;;;5015424;28;20025;-77
2021/11/30 06:44:56;;;;;;;3.78;1.80;;;7.50;99.90;;;;;;5015519;28;20029;-77
2021/11/30 06:47:24;;;;;;;3.65;1.50;;;7.50;99.90;;;;;;5014421;28;20022;-77
2021/11/30 06:49:50;;;;;;;3.10;1.58;;;7.60;99.90;;;;;;5015710;28;20080;-77
2021/11/30 06:52:16;;;;;;;4.10;1.70;;;7.60;99.90;;;;;;5015770;28;20022;-77
2021/11/30 06:54:47;;;;;;;3.80;1.60;;;7.60;99.90;;;;;;5013505;28;20415;-77
2021/11/30 06:57:14;;;;;;;2.97;1.60;;;7.70;99.90;;;;;;5014161;28;20030;-77
2021/11/30 06:59:40;;;;;;;2.33;1.27;;;7.80;99.90;;;;;;5013713;28;20076;-77
2021/11/30 07:02:08;;;;;;;2.70;1.33;;;7.80;99.90;;;;;;5014194;28;20113;-77
2021/11/30 07:04:38;;;;;;;2.75;1.33;;;7.80;99.90;;;;;;5013621;28;20026;-77
2021/11/30 07:07:32;;;;;;;2.10;1.30;;;7.90;99.90;;;;;;5015401;28;20070;-77
2021/11/30 07:15:10;;;;;;;2.55;1.23;;;8.10;99.90;;;;;;5015213;28;20096;-76
2021/11/30 07:17:37;;;;;;;1.75;1.20;;;8.10;99.90;;;;;;5014638;28;20022;-76
2021/11/30 07:20:04;;;;;;;4.28;1.42;;;8.20;99.90;;;;;;5013657;28;20030;-76
2021/11/30 07:22:30;;;;;;;4.05;1.52;;;8.20;99.90;;;;;;5013155;28;20024;-76
2021/11/30 07:24:56;;;;;;;2.42;1.50;;;8.30;99.90;;;;;;5015019;28;20077;-76
2021/11/30 07:27:22;;;;;;;2.75;1.25;;;8.30;99.90;;;;;;5015016;28;20390;-76
2021/11/30 07:29:48;;;;;;;2.25;1.40;;;8.40;99.90;;;;;;5014848;28;20026;-76
2021/11/30 07:32:14;;;;;;;3.95;1.65;;;8.40;99.90;;;;;;5013767;28;20022;-76
2021/11/30 07:34:39;;;;;;;4.07;2.00;;;8.50;99.90;;;;;;5012898;28;20048;-75
2021/11/30 07:37:06;;;;;;;3.38;1.67;;;8.50;99.90;;;;;;5015106;28;20462;-76
2021/11/30 07:39:32;;;;;;;4.32;1.70;;;8.50;99.90;;;;;;5014408;28;20092;-76
2021/11/30 07:41:58;;;;;;;3.65;1.60;;;8.50;99.90;;;;;;5013745;28;20549;-76
2021/11/30 07:44:24;;;;;;;4.15;1.63;;;8.60;99.90;;;;;;5013319;28;20577;-77
2021/11/30 07:46:50;;;;;;;4.13;1.58;;;8.60;99.90;;;;;;5014208;28;20026;-78
2021/11/30 07:49:15;;;;;;;3.83;1.80;;;8.60;99.90;;;;;;5014865;28;20422;-76
2021/11/30 07:51:41;;;;;;;4.82;2.28;;;8.70;99.90;;;;;;5014095;28;20120;-76
2021/11/30 07:54:07;;;;;;;4.32;1.73;;;8.60;99.90;;;;;;5013157;28;20030;-76
2021/11/30 07:56:34;;;;;;;5.95;2.10;;;8.70;99.90;;;;;;5012659;28;20421;-76
2021/11/30 07:59:00;;;;;;;3.95;1.80;;;8.70;99.90;;;;;;5014295;28;20036;-76
2021/11/30 08:01:26;;;;;;;2.85;1.33;;;8.70;99.90;;;;;;5013882;28;20030;-76
2021/11/30 08:03:52;;;;;;;2.45;1.35;;;8.70;99.90;;;;;;5012468;28;20018;-78
2021/11/30 08:06:17;;;;;;;2.25;1.10;;;8.70;99.90;;;;;;5014269;28;20075;-78
2021/11/30 08:08:44;;;;;;;2.22;1.10;;;8.80;99.90;;;;;;5013727;28;20037;-78
2021/11/30 08:11:09;;;;;;;1.65;0.93;;;8.80;99.90;;;;;;5012989;28;20018;-78
2021/11/30 08:13:35;;;;;;;0.93;0.65;;;8.80;99.90;;;;;;5013740;28;20053;-78
2021/11/30 08:16:01;;;;;;;1.50;0.68;;;8.80;99.90;;;;;;5014180;28;20101;-78
2021/11/30 08:18:27;;;;;;;1.58;0.80;;;8.80;99.90;;;;;;5014012;28;20034;-77
2021/11/30 08:20:55;;;;;;;1.05;0.50;;;8.80;99.90;;;;;;5012188;28;20498;-78
2021/11/30 08:23:21;;;;;;;1.63;0.82;;;8.80;99.90;;;;;;5012605;28;20030;-78
2021/11/30 08:25:47;;;;;;;1.65;0.70;;;8.80;99.90;;;;;;5013722;28;20025;-78
2021/11/30 08:28:13;;;;;;;1.13;0.60;;;8.90;99.90;;;;;;5013664;28;20034;-78
2021/11/30 08:30:39;;;;;;;0.77;0.63;;;8.90;99.90;;;;;;5012058;28;20080;-78
2021/11/30 08:33:05;;;;;;;0.73;0.50;;;8.90;99.90;;;;;;5013766;28;20101;-78
2021/11/30 08:35:31;;;;;;;1.30;0.60;;;8.90;99.90;;;;;;5013683;28;20145;-78
2021/11/30 08:37:56;;;;;;;1.08;0.80;;;8.90;99.90;;;;;;5013418;28;20121;-77
2021/11/30 08:40:22;;;;;;;1.35;0.70;;;8.90;99.90;;;;;;5012404;28;20026;-78
2021/11/30 08:42:48;;;;;;;1.35;0.90;;;9.00;99.90;;;;;;5011856;28;20028;-78
2021/11/30 08:45:13;;;;;;;1.40;0.60;;;8.90;99.90;;;;;;5013155;28;20028;-78
2021/11/30 08:47:40;;;;;;;0.77;0.50;;;9.00;99.90;;;;;;5013085;28;20466;-78
2021/11/30 08:50:12;;;;;;;0.50;0.30;;;9.00;99.90;;;;;;5012144;28;20436;-76
2021/11/30 08:52:38;;;;;;;1.10;0.50;;;9.00;99.90;;;;;;5012892;28;20024;-75
2021/11/30 08:55:05;;;;;;;0.47;0.47;;;9.00;99.90;;;;;;5011607;28;20460;-77
2021/11/30 08:57:31;;;;;;;0.60;0.60;;;9.00;99.90;;;;;;5012981;28;20030;-76
2021/11/30 08:59:57;;;;;;;0.85;0.57;;;9.00;99.90;;;;;;5011506;28;20034;-76
2021/11/30 09:02:24;;;;;;;0.82;0.55;;;9.10;99.90;;;;;;5011894;28;20018;-76
2021/11/30 09:04:51;;;;;;;0.50;0.50;;;9.00;99.90;;;;;;5011417;28;20029;-76
2021/11/30 09:07:17;;;;;;;0.70;0.52;;;9.10;99.90;;;;;;5013300;28;20054;-76
2021/11/30 09:09:47;;;;;;;0.77;0.40;;;9.10;99.90;;;;;;5011232;28;20064;-76
2021/11/30 09:12:15;;;;;;;1.02;0.50;;;9.10;99.90;;;;;;5011800;28;20022;-76
2021/11/30 09:14:41;;;;;;;0.30;0.30;;;9.20;99.90;;;;;;5011157;28;20026;-76
2021/11/30 09:17:06;;;;;;;0.40;0.40;;;9.20;99.90;;;;;;5013136;28;20033;-76
2021/11/30 09:19:33;;;;;;;1.05;0.55;;;9.20;99.90;;;;;;5011575;28;20558;-76
2021/11/30 09:21:59;;;;;;;0.40;0.32;;;9.20;99.90;;;;;;5011372;28;20113;-76
2021/11/30 09:24:25;;;;;;;0.30;0.30;;;9.20;99.90;;;;;;5012525;28;20026;-76
2021/11/30 09:26:52;;;;;;;0.40;0.40;;;9.20;99.90;;;;;;5012335;28;20037;-76
2021/11/30 09:29:17;;;;;;;0.30;0.30;;;9.30;99.90;;;;;;5011481;28;20026;-76
2021/11/30 09:31:43;;;;;;;0.30;0.30;;;9.30;99.90;;;;;;5011074;28;20489;-76
2021/11/30 09:34:09;;;;;;;0.30;0.30;;;9.30;99.90;;;;;;5012727;28;20026;-75
2021/11/30 09:36:36;;;;;;;0.30;0.30;;;9.30;99.90;;;;;;5011289;28;20112;-75
2021/11/30 09:39:06;;;;;;;1.10;0.30;;;9.40;99.90;;;;;;5012288;28;20053;-76
2021/11/30 09:41:32;;;;;;;0.30;0.30;;;9.40;99.90;;;;;;5011420;28;20049;-75
2021/11/30 09:43:58;;;;;;;0.30;0.30;;;9.40;99.90;;;;;;5010694;28;20077;-76
2021/11/30 09:46:24;;;;;;;0.57;0.35;;;9.40;99.90;;;;;;5010746;28;20022;-75
2021/11/30 09:48:49;;;;;;;0.22;0.22;;;9.40;99.90;;;;;;5012116;28;20454;-75
2021/11/30 09:51:15;;;;;;;1.30;0.40;;;9.50;99.90;;;;;;5012534;28;20458;-75
2021/11/30 09:53:41;;;;;;;0.30;0.30;;;9.50;99.90;;;;;;5010586;28;20026;-76
2021/11/30 09:56:07;;;;;;;0.30;0.30;;;9.50;99.90;;;;;;5011299;28;20432;-76
2021/11/30 09:58:33;;;;;;;0.90;0.30;;;9.50;99.90;;;;;;5010911;28;20112;-75
2021/11/30 10:01:01;;;;;;;0.20;0.20;;;9.50;99.90;;;;;;5011989;28;20026;-76
2021/11/30 10:03:27;;;;;;;0.20;0.20;;;9.60;99.90;;;;;;5011063;28;20022;-76
2021/11/30 10:05:55;;;;;;;0.47;0.30;;;9.50;99.90;;;;;;5010709;28;20071;-76
2021/11/30 10:08:31;;;;;;;0.20;0.20;;;9.60;99.90;;;;;;5014140;28;20026;-77
2021/11/30 10:10:58;;;;;;;0.20;0.20;;;9.60;99.90;;;;;;5014653;28;20400;-77
2021/11/30 10:13:25;;;;;;;0.20;0.20;;;9.50;99.90;;;;;;5014907;28;20500;-76
2021/11/30 10:15:55;;;;;;;0.20;0.20;;;9.50;99.90;;;;;;5015739;28;20026;-76
2021/11/30 10:18:24;;;;;;;0.40;0.20;;;9.40;99.90;;;;;;5014709;28;20026;-77
2021/11/30 10:20:56;;;;;;;0.20;0.20;;;9.40;99.90;;;;;;5015731;28;20021;-76
2021/11/30 10:23:24;;;;;;;0.20;0.20;;;9.30;99.90;;;;;;5016188;28;20104;-76
2021/11/30 10:25:51;;;;;;;0.20;0.20;;;9.30;99.90;;;;;;5015544;28;20026;-76
2021/11/30 10:28:24;;;;;;;0.20;0.20;;;9.20;99.90;;;;;;5016168;28;20026;-76
2021/11/30 10:30:52;;;;;;;0.20;0.20;;;9.20;99.90;;;;;;5015629;28;20026;-76
2021/11/30 10:33:24;;;;;;;0.20;0.20;;;9.20;99.90;;;;;;5014630;28;20029;-76
2021/11/30 10:35:59;;;;;;;0.20;0.20;;;9.30;99.90;;;;;;5014203;28;20100;-76
2021/11/30 10:38:39;;;;;;;0.20;0.20;;;9.30;99.90;;;;;;5014458;28;20064;-76
2021/11/30 10:41:23;;;;;;;0.20;0.20;;;9.30;99.90;;;;;;5014273;28;20052;-76
2021/11/30 10:44:06;;;;;;;0.17;0.17;;;9.20;99.90;;;;;;5014224;28;20049;-76
2021/11/30 10:46:34;;;;;;;0.20;0.20;;;9.20;99.90;;;;;;5014411;28;20030;-76
2021/11/30 10:49:00;;;;;;;0.20;0.20;;;9.10;99.90;;;;;;5015137;28;20310;-76
2021/11/30 10:51:27;;;;;;;0.20;0.20;;;9.10;99.90;;;;;;5015344;28;20026;-75
2021/11/30 10:54:00;;;;;;;0.20;0.20;;;9.10;99.90;;;;;;5015142;28;20105;-76
2021/11/30 10:56:26;;;;;;;0.20;0.20;;;9.10;99.90;;;;;;5015303;28;20378;-76
2021/11/30 10:58:54;;;;;;;0.20;0.20;;;9.00;99.90;;;;;;5013761;28;20033;-75
2021/11/30 11:01:21;;;;;;;0.20;0.20;;;9.00;99.90;;;;;;5015508;28;20105;-75
2021/11/30 11:04:07;;;;;;;0.20;0.20;;;9.00;99.90;;;;;;5013603;28;20029;-75
2021/11/30 11:06:37;;;;;;;0.20;0.20;;;9.10;99.90;;;;;;5013994;28;20481;-75
2021/11/30 11:09:11;;;;;;;0.20;0.20;;;9.00;99.90;;;;;;5014607;28;20062;-75
2021/11/30 11:11:44;;;;;;;0.20;0.20;;;9.00;99.90;;;;;;5014083;28;20148;-75
2021/11/30 11:14:22;;;;;;;0.20;0.20;;;9.00;99.90;;;;;;5015359;28;20101;-76
2021/11/30 11:16:52;;;;;;;0.20;0.20;;;9.00;99.90;;;;;;5014894;28;20022;-75
2021/11/30 11:19:38;;;;;;;0.20;0.20;;;9.00;99.90;;;;;;5013360;28;20447;-75
2021/11/30 11:22:15;;;;;;;0.20;0.20;;;9.00;99.90;;;;;;5013272;28;20080;-75
2021/11/30 11:24:43;;;;;;;0.20;0.20;;;9.00;99.90;;;;;;5013744;28;20316;-75
2021/11/30 11:27:08;;;;;;;0.20;0.20;;;9.00;99.90;;;;;;5015040;28;20201;-75
2021/11/30 11:29:37;;;;;;;1.13;0.20;;;9.00;99.90;;;;;;5014898;28;20029;-75
2021/11/30 11:32:07;;;;;;;0.20;0.20;;;9.00;99.90;;;;;;5014432;28;20104;-75
2021/11/30 11:34:34;;;;;;;0.20;0.20;;;9.00;99.90;;;;;;5013644;28;20409;-75
2021/11/30 11:37:03;;;;;;;0.20;0.20;;;9.10;99.90;;;;;;5012987;28;20091;-75
2021/11/30 11:39:30;;;;;;;0.20;0.20;;;9.00;99.90;;;;;;5014385;28;20493;-75
2021/11/30 11:42:07;;;;;;;0.20;0.20;;;9.00;99.90;;;;;;5013065;28;20120;-75
2021/11/30 11:44:34;;;;;;;0.20;0.20;;;9.00;99.90;;;;;;5014716;28;20060;-75
2021/11/30 11:47:03;;;;;;;0.20;0.20;;;9.00;99.90;;;;;;5012651;28;20028;-75
2021/11/30 11:49:34;;;;;;;0.20;0.20;;;9.00;99.90;;;;;;5013375;28;20025;-75
2021/11/30 11:52:00;;;;;;;0.20;0.20;;;9.10;99.90;;;;;;5014116;28;20018;-75
2021/11/30 11:54:29;;;;;;;0.20;0.20;;;9.00;99.90;;;;;;5013239;28;20159;-75
2021/11/30 11:57:07;;;;;;;0.40;0.20;;;9.10;99.90;;;;;;5012661;28;20028;-75
2021/11/30 11:59:43;;;;;;;0.20;0.20;;;9.10;99.90;;;;;;5014798;28;20060;-75
2021/11/30 12:02:20;;;;;;;0.20;0.20;;;9.10;99.90;;;;;;5013954;28;20030;-75
2021/11/30 12:04:52;;;;;;;0.20;0.20;;;9.00;99.90;;;;;;5012265;28;20026;-75
2021/11/30 12:07:19;;;;;;;0.20;0.20;;;9.00;99.90;;;;;;5014332;28;20053;-75
2021/11/30 12:09:45;;;;;;;0.20;0.20;;;9.00;99.90;;;;;;5014162;28;20407;-75
2021/11/30 12:12:11;;;;;;;0.20;0.20;;;9.10;99.90;;;;;;5013685;28;20096;-75
2021/11/30 12:14:43;;;;;;;0.20;0.20;;;9.10;99.90;;;;;;5012781;28;20109;-75
2021/11/30 12:17:29;;;;;;;0.20;0.20;;;9.10;99.90;;;;;;5012182;28;20026;-75
2021/11/30 12:19:58;;;;;;;0.20;0.20;;;9.10;99.90;;;;;;5012259;28;20084;-75
2021/11/30 12:22:47;;;;;;;0.20;0.20;;;9.10;99.90;;;;;;5012881;28;20058;-76
2021/11/30 12:25:26;;;;;;;0.30;0.25;;;9.00;99.90;;;;;;5012528;28;20022;-75
2021/11/30 12:27:55;;;;;;;0.20;0.20;;;9.00;99.90;;;;;;5011868;28;20068;-75
2021/11/30 12:30:55;;;;;;;0.20;0.20;;;9.00;99.90;;;;;;5011649;28;20382;-75
2021/11/30 12:33:23;;;;;;;0.20;0.20;;;9.10;99.90;;;;;;5012574;28;20116;-74
2021/11/30 12:36:00;;;;;;;0.20;0.20;;;9.10;99.90;;;;;;5013254;28;20026;-75
2021/11/30 12:38:37;;;;;;;0.20;0.20;;;9.10;99.90;;;;;;5013488;28;20053;-75
2021/11/30 12:41:29;;;;;;;0.20;0.20;;;9.10;99.90;;;;;;5011938;28;20022;-76
2021/11/30 12:44:11;;;;;;;0.20;0.20;;;9.10;99.90;;;;;;5013147;28;20046;-75
2021/11/30 12:46:38;;;;;;;;;;;9.10;99.90;;;;;;5013989;28;20482;-75
2021/11/30 12:49:29;;;;;;;0.20;0.20;;;9.10;99.90;;;;;;5011457;28;20365;-74
2021/11/30 12:52:12;;;;;;;;;;;9.10;99.90;;;;;;5013530;28;20026;-74
2021/11/30 12:54:44;;;;;;;0.20;0.20;;;9.10;99.90;;;;;;5013613;28;19958;-74
2021/11/30 12:57:13;;;;;;;0.20;0.20;;;9.10;99.90;;;;;;5012864;28;20486;-76
2021/11/30 12:59:41;;;;;;;0.20;0.20;;;9.10;99.90;;;;;;5013243;28;20026;-75
2021/11/30 13:02:20;;;;;;;0.20;0.20;;;9.10;99.90;;;;;;5013199;28;20021;-74
2021/11/30 13:04:48;;;;;;;0.20;0.20;;;9.20;99.90;;;;;;5012097;28;20021;-75
2021/11/30 13:07:16;;;;;;;0.20;0.20;;;9.20;99.90;;;;;;5011168;28;20030;-74
2021/11/30 13:09:43;;;;;;;0.13;0.13;;;9.20;99.90;;;;;;5011706;28;20036;-75
2021/11/30 13:12:14;;;;;;;0.20;0.20;;;9.20;99.90;;;;;;5011514;28;20037;-77
2021/11/30 13:14:41;;;;;;;0.20;0.20;;;9.20;99.90;;;;;;5013040;28;20029;-75
2021/11/30 13:17:09;;;;;;;0.20;0.20;;;9.20;99.90;;;;;;5011210;28;20470;-75
2021/11/30 13:19:38;;;;;;;0.10;0.10;;;9.20;99.90;;;;;;5013024;28;20025;-75
2021/11/30 13:22:06;;;;;;;0.20;0.20;;;9.20;99.90;;;;;;5012272;28;20022;-75
2021/11/30 13:25:01;;;;;;;0.20;0.20;;;9.10;99.90;;;;;;5012764;28;20092;-74
2021/11/30 13:27:32;;;;;;;0.20;0.20;;;9.10;99.90;;;;;;5011393;28;20439;-75